Brookings, OR

7:59 AM PST on March 01, 2015 (GMT -0800)
McNamara | Change Station
CLOSE
Current Station
Airport
Location: Crescent City,
Elevation: 56 ft
Nearby Weather Stations

Elev 56 ft 41.78 °N, 124.24 °W | Updated 1 hour ago

Clear
Clear
44 °F
Feels Like 39 °F
N
9
Wind Variable Wind from ENE

Today
High -- | Low -- °F
--% Chance of Precip.
Yesterday
High -- | Low -- °F
Precip. -- in
6:52 AM 6:07 PM
Waxing Gibbous, 86% visible
Pressure 30.08 in
Visibility 10.0 miles
Clouds Clear
Windchill 39 °F
Dew Point 27 °F
Humidity 51%
Rainfall 0.00 in
Snow Depth Not available.
UV 0 out of 12
Pollen 4.70 out of 12
Air Quality Not available.
Flu Activity Not available.
METAR KCEC 011456Z AUTO 06008KT 10SM CLR 07/M03 A3008 RMK AO2 SLP185 T00671028 54000

More Conditions Fewer Conditions

Pressure 30.08 in
Visibility 10.0 miles
Clouds Clear
Windchill 39 °F
Dew Point 27 °F
Humidity 51%
Rainfall 0.00 in
Snow Depth Not available.
UV 0 out of 12
Pollen 4.70 out of 12
Air Quality Not available.
Flu Activity Not available.
METAR KCEC 011456Z AUTO 06008KT 10SM CLR 07/M03 A3008 RMK AO2 SLP185 T00671028 54000

More Conditions Fewer Conditions

10-Day Weather Forecast

Almanac

Astronomy

Mar. 01, 2015 Rise Set
Actual Time
Civil Twilight
Nautical Twilight
Astronomical Twilight
Moon
Length of Visible Light
Length of Day
Tomorrow will be .
, % of the Moon is Illuminated

Today's Extremes

State Highs State Lows

Community

WunderPhotos

Upload Photos

1,801,435 photos uploaded!

WunderBlogs® & News

Nearby

Air Quality

  Air Quality AQ Index Pollutant
Not available.

Snow Depth

Station Depth Elevation

Earthquake Activity

City Distance Mag. Time & Date
Minimum magnitude displayed is 2.5.

Coastal Water Temperatures

Place Temperature

Nearby Weather Stations